createdAt,value
2022-10-01T00:01:19.710Z,99129.03
2022-10-01T00:03:46.707Z,99122.22
2022-10-01T00:06:19.538Z,99117.72
2022-10-01T00:08:49.613Z,99110.56
2022-10-01T00:11:18.507Z,99109.78
2022-10-01T00:13:45.869Z,99109.34
2022-10-01T00:16:15.884Z,99108.88
2022-10-01T00:18:44.807Z,99117.13
2022-10-01T00:21:15.169Z,99110.75
2022-10-01T00:23:42.816Z,99116.03
2022-10-01T00:26:13.917Z,99112.16
2022-10-01T00:28:43.537Z,99113.69
2022-10-01T00:31:11.040Z,99111.03
2022-10-01T00:33:38.849Z,99106.09
2022-10-01T00:36:07.290Z,99100.81
2022-10-01T00:38:35.318Z,99095.88
2022-10-01T00:41:03.850Z,99109.50
2022-10-01T00:43:36.268Z,99103.47
2022-10-01T00:46:20.828Z,99106.88
2022-10-01T00:49:13.821Z,99107.63
2022-10-01T00:51:48.603Z,99109.06
2022-10-01T00:54:23.989Z,99112.47
2022-10-01T00:56:57.623Z,99114.78
2022-10-01T00:59:24.779Z,99118.19
2022-10-01T01:01:51.714Z,99112.91
2022-10-01T01:04:18.589Z,99118.97
2022-10-01T01:06:53.446Z,99121.94
2022-10-01T01:09:21.364Z,99125.03
2022-10-01T01:12:00.253Z,99122.13
2022-10-01T01:14:49.843Z,99123.50
2022-10-01T01:17:30.548Z,99118.38
2022-10-01T01:20:12.509Z,99119.16
2022-10-01T01:22:46.873Z,99109.38
2022-10-01T01:25:24.785Z,99107.81
2022-10-01T01:28:29.043Z,99110.13
2022-10-01T01:31:04.753Z,99119.63
2022-10-01T01:33:35.789Z,99131.41
2022-10-01T01:36:15.965Z,99139.78
2022-10-01T01:38:53.691Z,99142.44
2022-10-01T01:41:26.051Z,99142.28
2022-10-01T01:43:59.675Z,99130.94
2022-10-01T01:46:29.110Z,99134.38
2022-10-01T01:48:55.966Z,99134.22
2022-10-01T01:51:30.363Z,99133.44
2022-10-01T01:53:57.464Z,99136.38
2022-10-01T01:56:24.497Z,99141.66
2022-10-01T01:58:53.085Z,99129.91
2022-10-01T02:01:40.455Z,99130.19
2022-10-01T02:04:20.464Z,99128.78
2022-10-01T02:06:52.859Z,99139.34
2022-10-01T02:09:35.966Z,99130.66
2022-10-01T02:12:21.756Z,99133.31
2022-10-01T02:14:58.545Z,99134.84
2022-10-01T02:17:32.727Z,99140.75
2022-10-01T02:20:07.517Z,99136.88
2022-10-01T02:22:36.997Z,99132.69
2022-10-01T02:25:07.181Z,99141.22
2022-10-01T02:27:40.385Z,99137.66
2022-10-01T02:30:10.858Z,99141.41
2022-10-01T02:32:45.067Z,99148.22
2022-10-01T02:35:15.834Z,99142.50
2022-10-01T02:37:44.694Z,99138.75
2022-10-01T02:40:18.092Z,99139.53
2022-10-01T02:42:53.101Z,99154.13
2022-10-01T02:45:23.460Z,99149.31
2022-10-01T02:48:04.571Z,99142.19
2022-10-01T02:50:41.217Z,99136.13
2022-10-01T02:53:37.289Z,99136.91
2022-10-01T02:56:05.759Z,99127.09
2022-10-01T02:58:34.870Z,99126.81
2022-10-01T03:01:01.850Z,99126.81
2022-10-01T03:03:28.672Z,99146.84
2022-10-01T03:05:55.411Z,99145.28
2022-10-01T03:08:22.211Z,99136.56
2022-10-01T03:10:49.062Z,99126.34
2022-10-01T03:13:15.927Z,99134.59
2022-10-01T03:15:45.794Z,99138.00
2022-10-01T03:18:12.584Z,99137.22
2022-10-01T03:20:39.378Z,99134.59
2022-10-01T03:23:06.094Z,99129.59
2022-10-01T03:25:32.844Z,99122.00
2022-10-01T03:27:59.751Z,99124.66
2022-10-01T03:30:26.594Z,99123.41
2022-10-01T03:32:53.453Z,99123.72
2022-10-01T03:35:20.215Z,99133.47
2022-10-01T03:37:46.977Z,99129.00
2022-10-01T03:40:13.786Z,99140.34
2022-10-01T03:42:40.544Z,99138.75
2022-10-01T03:45:07.795Z,99134.72
2022-10-01T03:47:34.713Z,99143.75
2022-10-01T03:50:01.517Z,99146.38
2022-10-01T03:52:28.364Z,99143.41
2022-10-01T03:54:55.184Z,99134.72
2022-10-01T03:57:22.116Z,99142.66
2022-10-01T03:59:48.911Z,99152.09
2022-10-01T04:02:15.751Z,99149.47
2022-10-01T04:04:42.650Z,99143.41
2022-10-01T04:07:09.396Z,99154.75
2022-10-01T04:09:36.726Z,99156.31
2022-10-01T04:12:03.677Z,99154.44
2022-10-01T04:14:30.430Z,99152.59
2022-10-01T04:16:57.268Z,99149.16
2022-10-01T04:19:24.048Z,99142.66
2022-10-01T04:21:50.879Z,99147.47
2022-10-01T04:24:17.628Z,99147.47
2022-10-01T04:26:44.438Z,99151.19
2022-10-01T04:29:11.260Z,99143.88
2022-10-01T04:31:38.342Z,99151.50
2022-10-01T04:34:05.758Z,99156.63
2022-10-01T04:36:32.568Z,99151.34
2022-10-01T04:39:02.130Z,99156.00
2022-10-01T04:41:31.257Z,99148.09
2022-10-01T04:43:59.341Z,99153.81
2022-10-01T04:46:26.502Z,99155.41
2022-10-01T04:48:53.309Z,99143.59
2022-10-01T04:51:20.273Z,99148.09
2022-10-01T04:53:47.112Z,99141.72
2022-10-01T04:56:13.902Z,99145.91
2022-10-01T04:58:40.662Z,99150.13
2022-10-01T05:01:07.631Z,99151.66
2022-10-01T05:03:34.514Z,99154.31
2022-10-01T05:06:01.501Z,99157.22
2022-10-01T05:08:28.311Z,99167.00
2022-10-01T05:10:55.095Z,99166.72
2022-10-01T05:13:21.835Z,99164.38
2022-10-01T05:15:49.770Z,99165.94
2022-10-01T05:18:16.734Z,99180.38
2022-10-01T05:20:43.452Z,99178.81
2022-10-01T05:23:10.214Z,99182.22
2022-10-01T05:25:37.057Z,99178.81
2022-10-01T05:28:03.906Z,99179.59
2022-10-01T05:30:31.395Z,99178.06
2022-10-01T05:33:01.023Z,99182.56
2022-10-01T05:35:28.576Z,99188.59
2022-10-01T05:38:01.224Z,99185.19
2022-10-01T05:40:29.197Z,99188.59
2022-10-01T05:42:58.247Z,99192.00
2022-10-01T05:45:27.697Z,99186.41
2022-10-01T05:47:58.073Z,99193.41
2022-10-01T05:50:25.371Z,99186.91
2022-10-01T05:52:52.465Z,99186.44
2022-10-01T05:55:19.939Z,99200.72
2022-10-01T05:57:54.446Z,99193.25
2022-10-01T06:00:21.356Z,99197.75
2022-10-01T06:02:52.685Z,99201.94
2022-10-01T06:05:20.646Z,99182.69
2022-10-01T06:07:48.446Z,99194.97
2022-10-01T06:10:15.730Z,99180.69
2022-10-01T06:12:42.597Z,99175.84
2022-10-01T06:15:10.698Z,99171.81
2022-10-01T06:17:37.522Z,99188.44
2022-10-01T06:20:04.636Z,99188.44
2022-10-01T06:22:31.492Z,99184.25
2022-10-01T06:24:58.232Z,99184.25
2022-10-01T06:27:25.231Z,99180.38
2022-10-01T06:29:52.017Z,99189.84
2022-10-01T06:32:18.735Z,99178.97
2022-10-01T06:34:45.909Z,99183.31
2022-10-01T06:37:12.932Z,99170.88
2022-10-01T06:39:39.652Z,99180.66
2022-10-01T06:42:06.544Z,99178.03
2022-10-01T06:44:33.307Z,99178.50
2022-10-01T06:47:00.055Z,99172.91
2022-10-01T06:49:26.782Z,99174.63
2022-10-01T06:51:53.590Z,99160.31
2022-10-01T06:54:20.303Z,99155.50
2022-10-01T06:56:48.105Z,99150.34
2022-10-01T06:59:14.975Z,99146.66
2022-10-01T07:01:41.778Z,99141.03
2022-10-01T07:04:08.589Z,99141.81
2022-10-01T07:06:35.334Z,99145.38
2022-10-01T07:09:02.105Z,99159.66
2022-10-01T07:11:28.876Z,99148.66
2022-10-01T07:13:55.655Z,99150.66
2022-10-01T07:16:22.633Z,99143.81
2022-10-01T07:18:49.478Z,99148.66
2022-10-01T07:21:16.253Z,99156.59
2022-10-01T07:23:43.000Z,99154.25
2022-10-01T07:26:10.618Z,99152.06
2022-10-01T07:28:37.538Z,99149.09
2022-10-01T07:31:07.010Z,99148.00
2022-10-01T07:33:33.903Z,99135.28
2022-10-01T07:36:02.508Z,99135.28
2022-10-01T07:38:29.480Z,99136.81
2022-10-01T07:40:57.041Z,99130.47
2022-10-01T07:43:24.079Z,99118.47
2022-10-01T07:45:54.565Z,99117.09
2022-10-01T07:48:21.474Z,99112.28
2022-10-01T07:50:48.267Z,99124.53
2022-10-01T07:53:15.362Z,99126.84
2022-10-01T07:55:42.695Z,99136.47
2022-10-01T07:58:10.006Z,99133.19
2022-10-01T08:00:36.894Z,99142.81
2022-10-01T08:03:04.562Z,99142.94
2022-10-01T08:05:34.033Z,99144.63
2022-10-01T08:08:03.776Z,99139.03
2022-10-01T08:10:31.694Z,99145.09
2022-10-01T08:13:08.005Z,99140.72
2022-10-01T08:15:35.328Z,99141.50
2022-10-01T08:18:03.842Z,99144.28
2022-10-01T08:20:31.425Z,99151.56
2022-10-01T08:23:05.275Z,99142.69
2022-10-01T08:25:32.717Z,99143.16
2022-10-01T08:27:59.526Z,99149.34
2022-10-01T08:30:27.489Z,99147.94
2022-10-01T08:32:59.447Z,99144.97
2022-10-01T08:35:27.369Z,99151.94
2022-10-01T08:37:54.398Z,99147.56
2022-10-01T08:40:22.025Z,99140.56
2022-10-01T08:42:57.325Z,99147.84
2022-10-01T08:45:29.104Z,99149.84
2022-10-01T08:48:02.171Z,99154.50
2022-10-01T08:50:42.002Z,99140.00
2022-10-01T08:53:16.708Z,99145.59
2022-10-01T08:55:47.167Z,99153.22
2022-10-01T08:58:23.686Z,99138.72
2022-10-01T09:00:50.695Z,99143.22
2022-10-01T09:03:19.011Z,99140.13
2022-10-01T09:06:00.770Z,99138.72
2022-10-01T09:09:08.801Z,99142.44
2022-10-01T09:12:04.316Z,99138.25
2022-10-01T09:14:40.252Z,99138.25
2022-10-01T09:17:31.717Z,99144.00
2022-10-01T09:20:10.405Z,99134.97
2022-10-01T09:22:40.743Z,99131.88
2022-10-01T09:25:27.797Z,99133.88
2022-10-01T09:28:03.273Z,99123.75
2022-10-01T09:30:31.905Z,99123.00
2022-10-01T09:33:05.268Z,99117.50
2022-10-01T09:35:46.633Z,99117.97
2022-10-01T09:38:39.066Z,99109.69
2022-10-01T09:41:08.532Z,99117.31
2022-10-01T09:43:39.185Z,99110.28
2022-10-01T09:46:08.345Z,99113.34
2022-10-01T09:48:40.893Z,99106.19
2022-10-01T09:51:30.327Z,99102.47
2022-10-01T09:54:22.138Z,99109.31
2022-10-01T09:56:56.444Z,99108.19
2022-10-01T09:59:41.032Z,99114.38
2022-10-01T10:02:18.236Z,99113.72
2022-10-01T10:04:45.117Z,99112.31
2022-10-01T10:07:17.664Z,99102.19
2022-10-01T10:09:45.398Z,99102.63
2022-10-01T10:12:41.911Z,99104.00
2022-10-01T10:15:15.133Z,99104.41
2022-10-01T10:17:44.498Z,99105.22
2022-10-01T10:20:20.914Z,99100.34
2022-10-01T10:22:47.669Z,99096.28
2022-10-01T10:25:22.516Z,99091.13
2022-10-01T10:27:56.278Z,99096.84
2022-10-01T10:30:24.701Z,99090.13
2022-10-01T10:32:54.313Z,99089.81
2022-10-01T10:35:25.748Z,99095.22
2022-10-01T10:37:57.701Z,99093.03
2022-10-01T10:40:45.613Z,99081.91
2022-10-01T10:43:20.985Z,99080.59
2022-10-01T10:45:50.976Z,99079.25
2022-10-01T10:48:19.120Z,99073.75
2022-10-01T10:50:47.283Z,99069.69
2022-10-01T10:53:20.696Z,99065.94
2022-10-01T10:55:54.675Z,99063.09
2022-10-01T10:58:25.546Z,99059.00
2022-10-01T11:00:55.980Z,99056.38
2022-10-01T11:03:26.406Z,99053.38
2022-10-01T11:05:54.056Z,99054.16
2022-10-01T11:08:24.518Z,99048.06
2022-10-01T11:11:06.307Z,99039.81
2022-10-01T11:14:02.079Z,99036.63
2022-10-01T11:17:23.268Z,99026.78
2022-10-01T11:20:28.626Z,99026.13
2022-10-01T11:23:34.991Z,99016.41
2022-10-01T11:26:10.531Z,99024.81
2022-10-01T11:28:43.168Z,99019.50
2022-10-01T11:31:53.967Z,99021.47
2022-10-01T11:34:32.862Z,99013.19
2022-10-01T11:37:27.242Z,99001.59
2022-10-01T11:39:58.670Z,98994.88
2022-10-01T11:42:34.244Z,99000.03
2022-10-01T11:45:10.991Z,98996.81
2022-10-01T11:47:44.243Z,98992.28
2022-10-01T11:50:20.773Z,98988.53
2022-10-01T11:52:56.496Z,98990.06
2022-10-01T11:55:35.160Z,98980.25
2022-10-01T11:58:31.144Z,98979.22
2022-10-01T12:01:21.042Z,98980.53
2022-10-01T12:03:53.730Z,98974.88
2022-10-01T12:06:33.605Z,98975.69
2022-10-01T12:09:19.953Z,98971.91
2022-10-01T12:12:10.181Z,98973.44
2022-10-01T12:14:55.708Z,98966.28
2022-10-01T12:17:54.196Z,98967.03
2022-10-01T12:20:36.373Z,98963.63
2022-10-01T12:23:06.134Z,98954.56
2022-10-01T12:26:17.823Z,98953.78
2022-10-01T12:28:54.578Z,98949.69
2022-10-01T12:31:40.201Z,98947.13
2022-10-01T12:34:18.837Z,98948.66
2022-10-01T12:37:14.509Z,98945.34
2022-10-01T12:39:52.676Z,98947.31
2022-10-01T12:42:47.316Z,98947.78
2022-10-01T12:45:14.126Z,98945.22
2022-10-01T12:47:55.699Z,98933.94
2022-10-01T12:50:45.046Z,98932.47
2022-10-01T12:53:25.889Z,98937.75
2022-10-01T12:56:12.059Z,98935.88
2022-10-01T12:59:14.437Z,98931.78
2022-10-01T13:02:16.363Z,98926.84
2022-10-01T13:04:58.166Z,98917.25
2022-10-01T13:07:43.571Z,98911.00
2022-10-01T13:10:28.099Z,98912.94
2022-10-01T13:13:03.611Z,98910.38
2022-10-01T13:15:35.930Z,98911.16
2022-10-01T13:18:32.241Z,98910.47
2022-10-01T13:21:17.234Z,98914.28
2022-10-01T13:23:58.964Z,98912.09
2022-10-01T13:26:41.927Z,98914.38
2022-10-01T13:29:31.036Z,98908.22
2022-10-01T13:32:00.923Z,98911.31
2022-10-01T13:34:40.205Z,98918.06
2022-10-01T13:37:29.897Z,98916.88
2022-10-01T13:40:00.322Z,98918.00
2022-10-01T13:42:31.064Z,98927.84
2022-10-01T13:45:06.787Z,98930.06
2022-10-01T13:47:36.936Z,98918.66
2022-10-01T13:50:18.415Z,98928.50
2022-10-01T13:52:45.449Z,98925.19
2022-10-01T13:55:27.566Z,98927.06
2022-10-01T13:58:06.238Z,98929.81
2022-10-01T14:00:33.507Z,98935.44
2022-10-01T14:03:23.816Z,98935.34
2022-10-01T14:05:57.765Z,98935.78
2022-10-01T14:08:34.508Z,98947.53
2022-10-01T14:11:09.663Z,98954.28
2022-10-01T14:13:45.867Z,98952.31
2022-10-01T14:16:13.679Z,98946.16
2022-10-01T14:18:43.781Z,98951.38
2022-10-01T14:21:34.840Z,98941.72
2022-10-01T14:24:23.047Z,98934.03
2022-10-01T14:26:49.809Z,98928.19
2022-10-01T14:29:58.441Z,98927.00
2022-10-01T14:32:31.117Z,98928.38
2022-10-01T14:35:20.369Z,98922.19
2022-10-01T14:37:47.403Z,98912.72
2022-10-01T14:40:22.206Z,98911.91
2022-10-01T14:42:58.621Z,98914.16
2022-10-01T14:45:26.072Z,98911.41
2022-10-01T14:48:07.318Z,98910.63
2022-10-01T14:50:37.510Z,98916.63
2022-10-01T14:53:06.501Z,98916.63
2022-10-01T14:55:35.312Z,98911.53
2022-10-01T14:58:02.410Z,98912.56
2022-10-01T15:00:31.330Z,98907.53
2022-10-01T15:03:13.307Z,98905.19
2022-10-01T15:05:40.149Z,98907.75
2022-10-01T15:08:23.315Z,98915.09
2022-10-01T15:10:53.523Z,98910.88
2022-10-01T15:13:31.335Z,98913.88
2022-10-01T15:15:58.332Z,98919.53
2022-10-01T15:18:26.465Z,98913.00
2022-10-01T15:21:06.834Z,98910.25
2022-10-01T15:23:36.226Z,98906.84
2022-10-01T15:26:06.664Z,98912.47
2022-10-01T15:28:36.070Z,98924.09
2022-10-01T15:31:05.471Z,98900.25
2022-10-01T15:33:36.348Z,98896.06
2022-10-01T15:36:06.022Z,98891.41
2022-10-01T15:38:33.847Z,98910.28
2022-10-01T15:41:26.630Z,98907.22
2022-10-01T15:43:52.108Z,98908.00
2022-10-01T15:46:25.075Z,98905.25
2022-10-01T15:49:11.834Z,98886.94
2022-10-01T15:51:50.671Z,98890.34
2022-10-01T15:54:17.554Z,98905.81
2022-10-01T15:56:47.799Z,98908.81
2022-10-01T15:59:20.537Z,98916.75
2022-10-01T16:01:47.620Z,98917.41
2022-10-01T16:04:14.831Z,98915.84
2022-10-01T16:06:48.519Z,98929.88
2022-10-01T16:09:19.854Z,98927.47
2022-10-01T16:11:52.530Z,98920.63
2022-10-01T16:14:32.705Z,98923.59
2022-10-01T16:17:17.608Z,98930.44
2022-10-01T16:19:46.163Z,98920.53
2022-10-01T16:22:34.571Z,98918.19
2022-10-01T16:25:05.166Z,98915.88
2022-10-01T16:27:48.404Z,98908.25
2022-10-01T16:30:27.126Z,98903.28
2022-10-01T16:32:55.350Z,98910.47
2022-10-01T16:35:24.068Z,98924.03
2022-10-01T16:37:53.331Z,98932.09
2022-10-01T16:40:22.994Z,98943.66
2022-10-01T16:42:51.229Z,98946.19
2022-10-01T16:45:22.516Z,98955.59
2022-10-01T16:47:49.375Z,98954.69
2022-10-01T16:50:18.464Z,98959.56
2022-10-01T16:52:45.292Z,98953.50
2022-10-01T16:55:31.516Z,98954.59
2022-10-01T16:57:58.337Z,98946.88
2022-10-01T17:00:27.185Z,98947.34
2022-10-01T17:02:54.967Z,98949.97
2022-10-01T17:05:27.473Z,98929.22
2022-10-01T17:07:55.777Z,98931.44
2022-10-01T17:10:23.759Z,98942.34
2022-10-01T17:12:51.169Z,98941.94
2022-10-01T17:15:20.875Z,98931.75
2022-10-01T17:17:47.659Z,98947.34
2022-10-01T17:20:15.319Z,98947.88
2022-10-01T17:22:42.129Z,98952.19
2022-10-01T17:25:15.479Z,98949.41
2022-10-01T17:27:42.338Z,98957.81
2022-10-01T17:30:09.451Z,98957.34
2022-10-01T17:32:36.363Z,98958.78
2022-10-01T17:35:04.418Z,98975.66
2022-10-01T17:37:31.265Z,98975.56
2022-10-01T17:39:58.083Z,98976.66
2022-10-01T17:42:24.934Z,98972.22
2022-10-01T17:44:51.707Z,98984.13
2022-10-01T17:47:18.515Z,98979.94
2022-10-01T17:49:45.244Z,98980.91
2022-10-01T17:52:12.112Z,98985.00
2022-10-01T17:54:39.221Z,98970.56
2022-10-01T17:57:06.070Z,98965.16
2022-10-01T17:59:32.891Z,98988.84
2022-10-01T18:01:59.738Z,98983.09
2022-10-01T18:04:26.835Z,98985.63
2022-10-01T18:06:57.949Z,98991.13
2022-10-01T18:09:26.563Z,99002.34
2022-10-01T18:11:53.404Z,98989.31
2022-10-01T18:14:20.152Z,98999.78
2022-10-01T18:16:47.000Z,99007.16
2022-10-01T18:22:00.865Z,99001.75
2022-10-01T18:24:28.567Z,99004.56
2022-10-01T18:26:56.575Z,98999.75
2022-10-01T18:29:37.760Z,98989.81
2022-10-01T18:32:23.316Z,99002.25
2022-10-01T18:34:58.637Z,99011.31
2022-10-01T18:37:40.156Z,99014.25
2022-10-01T18:40:35.977Z,99012.72
2022-10-01T18:43:24.434Z,99006.66
2022-10-01T18:46:35.747Z,99012.06
2022-10-01T18:49:25.741Z,99014.59
2022-10-01T18:52:18.738Z,99030.13
2022-10-01T18:54:57.766Z,99025.16
2022-10-01T18:57:46.123Z,99024.38
2022-10-01T19:00:15.679Z,99051.91
2022-10-01T19:02:57.896Z,99040.91
2022-10-01T19:05:36.618Z,99057.97
2022-10-01T19:08:28.925Z,99051.91
2022-10-01T19:11:24.758Z,99048.31
2022-10-01T19:14:31.851Z,99060.28
2022-10-01T19:17:17.435Z,99067.47
2022-10-01T19:20:02.822Z,99057.91
2022-10-01T19:22:58.525Z,99071.13
2022-10-01T19:25:29.057Z,99065.38
2022-10-01T19:28:14.183Z,99067.38
2022-10-01T19:31:17.739Z,99056.94
2022-10-01T19:33:49.177Z,99064.56
2022-10-01T19:36:32.426Z,99059.16
2022-10-01T19:39:04.867Z,99074.22
2022-10-01T19:41:51.636Z,99079.06
2022-10-01T19:44:27.295Z,99092.28
2022-10-01T19:47:14.870Z,99081.06
2022-10-01T19:49:42.558Z,99086.34
2022-10-01T19:52:14.245Z,99090.66
2022-10-01T19:54:46.332Z,99079.19
2022-10-01T19:57:13.056Z,99076.69
2022-10-01T19:59:40.924Z,99070.94
2022-10-01T20:02:31.759Z,99083.88
2022-10-01T20:05:06.190Z,99093.25
2022-10-01T20:07:45.951Z,99087.13
2022-10-01T20:10:18.662Z,99091.13
2022-10-01T20:12:45.639Z,99090.34
2022-10-01T20:15:29.187Z,99100.59
2022-10-01T20:18:28.470Z,99085.75
2022-10-01T20:21:33.763Z,99097.56
2022-10-01T20:24:09.570Z,99101.75
2022-10-01T20:26:58.890Z,99089.19
2022-10-01T20:29:55.222Z,99087.75
2022-10-01T20:32:30.878Z,99074.28
2022-10-01T20:35:22.209Z,99078.94
2022-10-01T20:37:55.992Z,99084.78
2022-10-01T20:40:38.662Z,99070.25
2022-10-01T20:43:20.612Z,99078.66
2022-10-01T20:45:51.566Z,99083.06
2022-10-01T20:48:24.190Z,99082.84
2022-10-01T20:50:53.564Z,99097.63
2022-10-01T20:53:34.643Z,99102.84
2022-10-01T20:56:10.532Z,99111.34
2022-10-01T20:58:48.703Z,99117.53
2022-10-01T21:01:22.209Z,99124.38
2022-10-01T21:04:03.925Z,99135.75
2022-10-01T21:06:42.432Z,99127.47
2022-10-01T21:09:22.435Z,99119.53
2022-10-01T21:12:15.665Z,99124.63
2022-10-01T21:14:49.439Z,99124.16
2022-10-01T21:17:21.259Z,99129.28
2022-10-01T21:19:51.197Z,99132.56
2022-10-01T21:22:30.078Z,99150.97
2022-10-01T21:25:25.135Z,99154.69
2022-10-01T21:28:29.281Z,99163.19
2022-10-01T21:31:30.240Z,99174.34
2022-10-01T21:34:13.493Z,99161.94
2022-10-01T21:36:55.928Z,99160.00
2022-10-01T21:39:33.571Z,99158.00
2022-10-01T21:42:44.839Z,99147.16
2022-10-01T21:45:40.993Z,99152.63
2022-10-01T21:48:19.949Z,99134.06
2022-10-01T21:50:56.403Z,99141.38
2022-10-01T21:53:32.390Z,99159.75
2022-10-01T21:56:21.472Z,99136.38
2022-10-01T21:59:27.569Z,99144.19
2022-10-01T22:02:28.540Z,99151.03
2022-10-01T22:05:11.540Z,99142.78
2022-10-01T22:08:00.535Z,99139.50
2022-10-01T22:10:36.411Z,99136.84
2022-10-01T22:13:14.183Z,99150.34
2022-10-01T22:15:43.862Z,99149.81
2022-10-01T22:18:24.407Z,99156.31
2022-10-01T22:20:52.717Z,99171.56
2022-10-01T22:23:20.047Z,99165.50
2022-10-01T22:26:03.451Z,99164.97
2022-10-01T22:28:37.706Z,99175.44
2022-10-01T22:31:07.650Z,99174.06
2022-10-01T22:33:40.315Z,99192.91
2022-10-01T22:36:07.229Z,99190.28
2022-10-01T22:38:47.969Z,99195.44
2022-10-01T22:41:54.592Z,99177.81
2022-10-01T22:44:23.508Z,99197.44
2022-10-01T22:46:59.291Z,99180.13
2022-10-01T22:50:00.659Z,99196.59
2022-10-01T22:52:39.857Z,99192.72
2022-10-01T22:55:34.023Z,99193.94
2022-10-01T22:58:31.770Z,99192.97
2022-10-01T23:01:25.778Z,99207.78
2022-10-01T23:04:04.145Z,99206.84
2022-10-01T23:06:36.687Z,99206.28
2022-10-01T23:09:13.706Z,99198.06
2022-10-01T23:11:52.154Z,99206.50
2022-10-01T23:14:18.911Z,99199.41
2022-10-01T23:16:51.471Z,99205.00
2022-10-01T23:19:41.109Z,99215.00
2022-10-01T23:22:35.210Z,99201.66
2022-10-01T23:25:48.448Z,99209.25
2022-10-01T23:28:25.774Z,99209.13
2022-10-01T23:31:04.789Z,99209.75
2022-10-01T23:34:02.830Z,99210.38
2022-10-01T23:36:53.374Z,99201.03
2022-10-01T23:39:32.981Z,99213.03
2022-10-01T23:42:14.392Z,99210.38
2022-10-01T23:44:53.400Z,99204.78
2022-10-01T23:47:28.951Z,99198.25
2022-10-01T23:49:58.052Z,99197.94
2022-10-01T23:52:40.880Z,99191.75
2022-10-01T23:55:36.234Z,99200.44
2022-10-01T23:58:07.993Z,99201.25
